createdAt,value
2019-05-01T00:02:10.041Z,26.55
2019-05-01T00:06:15.526Z,25.57
2019-05-01T00:10:22.011Z,27.60
2019-05-01T00:14:25.450Z,24.00
2019-05-01T00:18:28.960Z,26.70
2019-05-01T00:22:32.429Z,24.85
2019-05-01T00:26:36.152Z,25.97
2019-05-01T00:30:41.123Z,25.93
2019-05-01T00:34:44.565Z,24.77
2019-05-01T00:38:48.310Z,26.53
2019-05-01T00:42:51.769Z,27.90
2019-05-01T00:46:55.227Z,25.45
2019-05-01T00:50:59.038Z,26.15
2019-05-01T00:55:20.528Z,24.25
2019-05-01T00:59:25.611Z,25.20
2019-05-01T01:03:29.435Z,24.70
2019-05-01T01:07:32.898Z,24.52
2019-05-01T01:11:36.423Z,25.02
2019-05-01T01:15:40.170Z,26.05
2019-05-01T01:19:43.980Z,23.93
2019-05-01T01:23:47.682Z,25.65
2019-05-01T01:27:51.401Z,25.95
2019-05-01T01:31:54.860Z,25.02
2019-05-01T01:35:58.305Z,26.02
2019-05-01T01:40:02.201Z,24.75
2019-05-01T01:44:11.033Z,24.85
2019-05-01T01:48:16.318Z,22.40
2019-05-01T01:52:21.918Z,23.43
2019-05-01T01:56:25.617Z,23.43
2019-05-01T02:00:42.690Z,20.88
2019-05-01T02:04:54.117Z,23.60
2019-05-01T02:08:57.564Z,23.25
2019-05-01T02:13:01.542Z,23.70
2019-05-01T02:17:05.349Z,21.95
2019-05-01T02:21:08.798Z,22.13
2019-05-01T02:25:14.003Z,23.07
2019-05-01T02:29:19.462Z,23.30
2019-05-01T02:33:22.994Z,23.42
2019-05-01T02:37:28.489Z,22.35
2019-05-01T02:41:34.820Z,23.38
2019-05-01T02:45:40.447Z,22.95
2019-05-01T02:49:49.902Z,22.93
2019-05-01T02:53:54.601Z,23.07
2019-05-01T02:57:58.767Z,21.35
2019-05-01T03:02:03.485Z,22.35
2019-05-01T03:06:07.245Z,21.37
2019-05-01T03:10:11.249Z,21.80
2019-05-01T03:14:17.770Z,20.95
2019-05-01T03:18:34.846Z,22.40
2019-05-01T03:22:48.778Z,20.72
2019-05-01T03:26:52.602Z,18.95
2019-05-01T03:30:56.228Z,18.73
2019-05-01T03:34:59.842Z,19.95
2019-05-01T03:39:05.323Z,18.63
2019-05-01T03:43:09.102Z,19.12
2019-05-01T03:47:12.810Z,21.12
2019-05-01T03:51:16.527Z,20.10
2019-05-01T03:55:20.542Z,19.30
2019-05-01T03:59:24.494Z,9.58
2019-05-01T04:03:30.008Z,17.50
2019-05-01T04:07:36.250Z,17.20
2019-05-01T04:11:38.990Z,16.82
2019-05-01T04:15:42.882Z,16.85
2019-05-01T04:19:46.410Z,16.27
2019-05-01T04:23:50.107Z,18.23
2019-05-01T04:27:58.671Z,17.67
2019-05-01T04:32:02.777Z,18.82
2019-05-01T04:36:16.995Z,18.30
2019-05-01T04:40:20.908Z,17.93
2019-05-01T04:44:24.427Z,18.57
2019-05-01T04:48:28.004Z,13.85
2019-05-01T04:52:31.478Z,17.35
2019-05-01T04:56:35.499Z,14.73
2019-05-01T05:00:39.309Z,15.28
2019-05-01T05:04:42.907Z,15.68
2019-05-01T05:08:46.362Z,13.22
2019-05-01T05:12:54.109Z,15.88
2019-05-01T05:16:59.606Z,16.10
2019-05-01T05:21:03.501Z,17.43
2019-05-01T05:25:07.030Z,15.65
2019-05-01T05:29:11.529Z,12.95
2019-05-01T05:33:18.947Z,13.03
2019-05-01T05:37:29.950Z,12.63
2019-05-01T05:41:33.533Z,14.23
2019-05-01T05:45:37.478Z,14.58
2019-05-01T05:49:41.114Z,14.95
2019-05-01T05:53:51.798Z,15.53
2019-05-01T05:57:59.057Z,10.78
2019-05-01T06:02:22.518Z,11.50
2019-05-01T06:06:32.652Z,11.12
2019-05-01T06:10:38.359Z,10.72
2019-05-01T06:18:53.883Z,11.05
2019-05-01T06:23:20.715Z,10.88
2019-05-01T06:27:22.560Z,8.43
2019-05-01T06:31:26.118Z,10.18
2019-05-01T06:35:29.566Z,8.50
2019-05-01T06:39:33.528Z,9.90
2019-05-01T06:43:47.554Z,7.35
2019-05-01T06:47:52.911Z,9.23
2019-05-01T06:52:01.039Z,10.63
2019-05-01T06:56:05.238Z,10.76
2019-05-01T07:00:11.038Z,11.80
2019-05-01T07:04:14.846Z,10.50
2019-05-01T07:08:24.599Z,8.60
2019-05-01T07:12:28.495Z,11.77
2019-05-01T07:16:33.250Z,8.97
2019-05-01T07:20:47.332Z,8.23
2019-05-01T07:24:52.773Z,9.77
2019-05-01T07:29:06.053Z,7.92
2019-05-01T07:33:11.976Z,8.30
2019-05-01T07:37:14.878Z,8.50
2019-05-01T07:41:18.661Z,8.58
2019-05-01T07:45:27.317Z,8.40
2019-05-01T07:49:56.786Z,8.60
2019-05-01T07:54:04.024Z,8.38
2019-05-01T07:58:10.180Z,8.68
2019-05-01T08:02:14.428Z,8.60
2019-05-01T08:06:21.684Z,9.08
2019-05-01T08:10:25.916Z,7.83
2019-05-01T08:14:28.559Z,8.73
2019-05-01T08:18:36.380Z,5.45
2019-05-01T08:22:39.825Z,5.53
2019-05-01T08:26:44.162Z,8.33
2019-05-01T08:30:52.746Z,7.28
2019-05-01T08:35:00.576Z,5.67
2019-05-01T08:39:04.988Z,8.23
2019-05-01T08:43:07.023Z,6.50
2019-05-01T08:47:20.855Z,5.65
2019-05-01T08:51:23.129Z,5.87
2019-05-01T08:55:26.815Z,5.10
2019-05-01T08:59:30.257Z,6.97
2019-05-01T09:03:34.081Z,5.92
2019-05-01T09:07:37.594Z,6.70
2019-05-01T09:11:41.190Z,5.72
2019-05-01T09:15:48.321Z,5.25
2019-05-01T09:19:50.098Z,7.12
2019-05-01T09:23:53.881Z,5.53
2019-05-01T09:27:59.536Z,5.65
2019-05-01T09:32:09.966Z,7.04
2019-05-01T09:36:10.566Z,3.47
2019-05-01T09:40:14.696Z,5.87
2019-05-01T09:44:18.468Z,5.97
2019-05-01T09:48:22.261Z,6.35
2019-05-01T09:52:30.308Z,5.90
2019-05-01T09:56:33.750Z,5.72
2019-05-01T10:00:37.539Z,6.00
2019-05-01T10:04:41.073Z,5.53
2019-05-01T10:08:44.513Z,5.30
2019-05-01T10:12:48.481Z,6.03
2019-05-01T10:16:52.042Z,6.25
2019-05-01T10:20:55.486Z,6.87
2019-05-01T10:24:58.949Z,6.22
2019-05-01T10:29:04.065Z,6.22
2019-05-01T10:33:12.397Z,6.03
2019-05-01T10:37:15.845Z,6.65
2019-05-01T10:41:19.288Z,6.65
2019-05-01T10:45:23.101Z,6.58
2019-05-01T10:49:26.605Z,5.90
2019-05-01T10:53:30.077Z,4.78
2019-05-01T10:57:35.002Z,6.35
2019-05-01T11:05:55.263Z,5.87
2019-05-01T11:09:48.554Z,6.63
2019-05-01T11:13:52.014Z,5.65
2019-05-01T11:17:55.776Z,5.30
2019-05-01T11:22:00.753Z,5.50
2019-05-01T11:26:04.531Z,5.55
2019-05-01T11:30:08.408Z,5.67
2019-05-01T11:34:28.584Z,4.75
2019-05-01T11:38:42.417Z,4.75
2019-05-01T11:42:46.256Z,4.80
2019-05-01T11:46:49.945Z,4.95
2019-05-01T11:50:53.739Z,5.13
2019-05-01T11:54:57.213Z,4.30
2019-05-01T11:59:00.717Z,4.33
2019-05-01T12:03:04.539Z,4.22
2019-05-01T12:07:07.977Z,4.10
2019-05-01T12:11:12.009Z,4.87
2019-05-01T12:15:16.150Z,4.35
2019-05-01T12:19:20.106Z,4.72
2019-05-01T12:23:23.576Z,4.75
2019-05-01T12:27:27.053Z,4.30
2019-05-01T12:31:31.310Z,3.47
2019-05-01T12:35:34.912Z,3.35
2019-05-01T12:39:38.358Z,4.40
2019-05-01T12:43:42.037Z,4.78
2019-05-01T12:47:52.899Z,3.98
2019-05-01T12:52:09.771Z,4.22
2019-05-01T12:56:05.237Z,4.33
2019-05-01T13:00:10.965Z,4.50
2019-05-01T13:04:14.414Z,2.77
2019-05-01T13:08:17.854Z,3.73
2019-05-01T13:12:21.342Z,3.00
2019-05-01T13:16:25.169Z,3.97
2019-05-01T13:20:28.848Z,4.75
2019-05-01T13:24:32.720Z,4.50
2019-05-01T13:28:46.773Z,4.53
2019-05-01T13:32:51.862Z,4.95
2019-05-01T13:37:02.680Z,4.53
2019-05-01T13:41:00.570Z,4.03
2019-05-01T13:45:05.908Z,4.60
2019-05-01T13:49:09.345Z,4.60
2019-05-01T13:53:12.865Z,5.53
2019-05-01T13:57:16.775Z,5.40
2019-05-01T14:01:20.601Z,4.83
2019-05-01T14:05:24.535Z,4.55
2019-05-01T14:09:29.953Z,4.87
2019-05-01T14:17:36.153Z,5.17
2019-05-01T14:21:43.966Z,4.62
2019-05-01T14:26:06.651Z,3.65
2019-05-01T14:30:12.042Z,3.60
2019-05-01T14:34:16.135Z,4.60
2019-05-01T14:38:20.358Z,3.90
2019-05-01T14:42:23.813Z,3.92
2019-05-01T14:46:27.522Z,4.33
2019-05-01T14:50:31.235Z,4.92
2019-05-01T14:54:34.681Z,4.50
2019-05-01T14:58:38.371Z,3.62
2019-05-01T15:02:41.828Z,3.77
2019-05-01T15:06:45.289Z,4.65
2019-05-01T15:10:48.805Z,4.40
2019-05-01T15:14:56.687Z,4.65
2019-05-01T15:19:10.992Z,4.20
2019-05-01T15:23:14.456Z,4.50
2019-05-01T15:27:17.894Z,4.10
2019-05-01T15:31:21.339Z,4.12
2019-05-01T15:35:24.794Z,3.80
2019-05-01T15:39:32.274Z,4.37
2019-05-01T15:43:54.085Z,4.40
2019-05-01T15:47:57.549Z,4.22
2019-05-01T15:52:01.014Z,3.70
2019-05-01T15:56:04.526Z,4.12
2019-05-01T16:00:09.300Z,4.53
2019-05-01T16:04:12.749Z,4.62
2019-05-01T16:08:16.202Z,4.42
2019-05-01T16:12:23.953Z,4.40
2019-05-01T16:16:27.393Z,4.65
2019-05-01T16:20:31.188Z,4.17
2019-05-01T16:24:35.009Z,4.65
2019-05-01T16:28:38.465Z,4.35
2019-05-01T16:32:42.171Z,4.45
2019-05-01T16:36:45.875Z,4.08
2019-05-01T16:41:09.308Z,4.58
2019-05-01T16:45:14.375Z,5.10
2019-05-01T16:49:18.187Z,5.53
2019-05-01T16:53:21.641Z,3.92
2019-05-01T16:57:25.265Z,4.17
2019-05-01T17:01:33.312Z,4.20
2019-05-01T17:05:50.280Z,4.12
2019-05-01T17:09:55.353Z,4.05
2019-05-01T17:13:59.550Z,4.15
2019-05-01T17:18:03.064Z,5.55
2019-05-01T17:22:09.224Z,5.10
2019-05-01T17:26:11.685Z,4.07
2019-05-01T17:30:20.484Z,4.60
2019-05-01T17:34:25.741Z,4.62
2019-05-01T17:38:29.113Z,5.15
2019-05-01T17:42:32.988Z,4.40
2019-05-01T17:46:41.911Z,4.67
2019-05-01T17:50:43.148Z,4.50
2019-05-01T17:54:46.602Z,5.10
2019-05-01T17:58:50.062Z,4.33
2019-05-01T18:02:57.856Z,4.78
2019-05-01T18:07:01.320Z,4.80
2019-05-01T18:11:09.460Z,5.62
2019-05-01T18:15:10.775Z,5.67
2019-05-01T18:19:14.627Z,6.25
2019-05-01T18:23:28.639Z,6.28
2019-05-01T18:27:42.656Z,6.80
2019-05-01T18:31:46.100Z,6.37
2019-05-01T18:35:50.529Z,6.42
2019-05-01T18:39:54.080Z,6.47
2019-05-01T18:43:57.615Z,7.15
2019-05-01T18:48:01.054Z,7.28
2019-05-01T18:52:05.186Z,7.20
2019-05-01T18:56:08.626Z,7.00
2019-05-01T19:00:12.287Z,7.60
2019-05-01T19:04:18.564Z,7.20
2019-05-01T19:08:21.171Z,8.13
2019-05-01T19:12:25.003Z,8.93
2019-05-01T19:16:28.545Z,7.40
2019-05-01T19:20:32.387Z,6.58
2019-05-01T19:24:38.210Z,6.80
2019-05-01T19:28:41.439Z,7.17
2019-05-01T19:32:44.987Z,4.70
2019-05-01T19:36:51.174Z,7.17
2019-05-01T19:40:53.684Z,7.57
2019-05-01T19:44:57.783Z,6.05
2019-05-01T19:49:01.550Z,7.65
2019-05-01T19:53:05.052Z,7.30
2019-05-01T19:57:08.547Z,7.45
2019-05-01T20:01:12.127Z,7.22
2019-05-01T20:05:15.573Z,7.85
2019-05-01T20:09:19.155Z,8.05
2019-05-01T20:13:22.675Z,7.12
2019-05-01T20:17:26.129Z,7.60
2019-05-01T20:21:29.577Z,8.20
2019-05-01T20:25:33.029Z,8.70
2019-05-01T20:29:36.844Z,8.18
2019-05-01T20:33:44.126Z,8.35
2019-05-01T20:37:45.830Z,8.80
2019-05-01T20:41:49.646Z,10.25
2019-05-01T20:45:53.388Z,7.95
2019-05-01T20:49:57.184Z,6.85
2019-05-01T20:54:01.457Z,6.45
2019-05-01T20:58:15.690Z,7.33
2019-05-01T21:02:19.157Z,8.15
2019-05-01T21:06:30.154Z,8.45
2019-05-01T21:10:36.092Z,7.42
2019-05-01T21:14:39.678Z,7.80
2019-05-01T21:18:43.144Z,6.72
2019-05-01T21:22:46.592Z,9.07
2019-05-01T21:26:50.353Z,8.05
2019-05-01T21:30:54.359Z,7.80
2019-05-01T21:34:58.302Z,7.47
2019-05-01T21:39:01.746Z,8.00
2019-05-01T21:43:05.192Z,8.85
2019-05-01T21:47:08.642Z,7.40
2019-05-01T21:51:12.649Z,7.03
2019-05-01T21:55:16.158Z,6.83
2019-05-01T21:59:19.607Z,5.37
2019-05-01T22:03:23.366Z,5.92
2019-05-01T22:07:27.820Z,6.90
2019-05-01T22:11:33.061Z,7.27
2019-05-01T22:15:41.942Z,7.28
2019-05-01T22:19:44.446Z,7.53
2019-05-01T22:23:58.498Z,7.97
2019-05-01T22:28:09.556Z,8.25
2019-05-01T22:32:27.616Z,7.65
2019-05-01T22:36:29.045Z,7.78
2019-05-01T22:40:50.449Z,8.83
2019-05-01T22:44:54.355Z,8.00
2019-05-01T22:48:57.794Z,7.42
2019-05-01T22:53:01.243Z,7.30
2019-05-01T22:57:04.691Z,7.85
2019-05-01T23:01:08.510Z,7.85
2019-05-01T23:05:12.295Z,7.65
2019-05-01T23:09:17.476Z,8.33
2019-05-01T23:13:20.919Z,7.40
2019-05-01T23:17:39.264Z,5.50
2019-05-01T23:21:40.097Z,5.00
2019-05-01T23:25:43.536Z,5.83
2019-05-01T23:29:46.982Z,7.05
2019-05-01T23:33:51.778Z,7.30
2019-05-01T23:37:55.757Z,6.27
2019-05-01T23:41:59.200Z,7.40
2019-05-01T23:46:02.959Z,6.45
2019-05-01T23:50:07.136Z,7.25
2019-05-01T23:54:10.586Z,7.95
2019-05-01T23:58:15.016Z,7.22
